AWOS - Automated Weather Observation System

 

0
0
0
0

 

AWOS from is a family of real-time weather observation systems specially designed to detect, report and disseminate weather conditions at airports. It intended use is for various sized of airports, ranging from small domestic landing strips or remotely operated airports to large international airports.

We can offer a turn-key solution including sensors, installation, training comissioning etc, or we can offer you just the customized software package and the rest is done by the customer himself or by a 3rd party. We can also offer the sensors preferred by the customer or we can use the sensors existing at the airport today and implement them in the new AWOS system.

Real Time Data from Combitech in Linköping

METAR CABX 211420Z AUTO 32007KT 280V030 9999 R01/P2000N R19///// BR FEW016/// SCT022/// BKN038/// 13/09 Q0991

Linköping Sweden, Lat: 58.39172, Lon: 15.56505

 

 

 

 

 

AWOS7 installed and operational at Lahr Black Forest Airport Germany.

Our AWOS team were on site during week 11, to install and comission the AWOS7 system. The system was aproved by DWD..


Combitech at AERO 2018 Friedrichshafen April 18 to 21

Combitech AWOS/ATIS team will participate at the AERO 2018. You will find us and our SMAWOS in Hall A5 stand..


Show all


AWOS Airport weather data:
     http://wx.awos.se

 

2018-06-21 14:25:06